LERI

Details ICAO LERI
Name ALCANTARILLA
Region Spain
Timezone Europe/Madrid (UTC+1.0)
Plans Departing 1
Arriving 8
Stats Elevation 250 ft / 76 m (AMSL)
Location 37.951110° -1.230319°
Runways 1
Magnetic Variation 0.011° E
Sunrise 2017-12-15 07:15:01 UTC / 2017-12-15 08:15:01 Local
Sunset 2017-12-15 16:47:56 UTC / 2017-12-15 17:47:56 Local
Advertisement - Login to hide

Runways

ID Width Length Bearing (true) Bearing (mag) Surface Threshold Offset Overrun Length
07 148 ft / 45 m 3,099 ft / 945 m 64.86° 64.85° Asphalt 0 ft / 0 m 0 ft / 0 m
25 148 ft / 45 m 3,099 ft / 945 m 244.86° 244.85° Asphalt 0 ft / 0 m 0 ft / 0 m

Map

Weather


0- 5 10 15 20 25 30 35+ Temperature / ° C

Clouds and Precipitation
Forecast for 2017-12-15 12:00 UTC. Updated an hour ago

Ground ~20,000 ft ~40,000 ft Winds

METAR

LERI 151200Z 31011KT 280V350 CAVOK 22/05 Q1010 NOSIG

TAF

Not found

Frequencies

Tower 118.10 MHz TWR
Warning: Do not use this data for real-world aviation or navigation. No guarantee of current accuracy is given.